Terminal Aerodrome Forecast
Issued by NWS

Home | Current Version | Previous Version | Text Only | Print | Product List | Glossary On
Versions: 1 2 3 4 5 6 7 8 9 10 11 12 13 14 15 16 17 18 19 20 21 22 23 24 25 26 27 28 29 30 31 32
000
FTPQ31 PGUM 161500 AAB
TAFPQ
TAF AMD
PGSN 161506Z 1615/1712 11010KT 6SM -RA SCT018 SCT050 BKN100
      TEMPO 1615/1618 17010G20KT 2SM +SHRA SCT015 BKN025
     FM162300 12009KT P6SM VCSH SCT018 SCT050 BKN110=

USA.gov is the U.S. government's official web portal to all federal, state and local government web resources and services.